createdAt,value
2018-08-03T00:00:41.192Z,21.08
2018-08-03T00:01:41.655Z,21.05
2018-08-03T00:02:41.316Z,20.93
2018-08-03T00:03:41.378Z,20.90
2018-08-03T00:04:41.440Z,20.82
2018-08-03T00:05:41.503Z,20.71
2018-08-03T00:06:41.565Z,20.96
2018-08-03T00:07:41.629Z,21.00
2018-08-03T00:08:41.692Z,21.00
2018-08-03T00:09:41.751Z,20.93
2018-08-03T00:10:41.815Z,21.08
2018-08-03T00:11:41.875Z,21.05
2018-08-03T00:12:41.936Z,21.01
2018-08-03T00:13:41.998Z,21.00
2018-08-03T00:14:42.062Z,20.90
2018-08-03T00:15:42.123Z,20.82
2018-08-03T00:16:42.184Z,20.79
2018-08-03T00:17:42.247Z,20.78
2018-08-03T00:18:42.309Z,20.72
2018-08-03T00:19:42.374Z,20.75
2018-08-03T00:20:42.442Z,20.72
2018-08-03T00:21:42.495Z,20.75
2018-08-03T00:22:42.582Z,20.71
2018-08-03T00:23:42.636Z,20.72
2018-08-03T00:24:42.682Z,20.72
2018-08-03T00:25:42.745Z,20.69
2018-08-03T00:26:42.807Z,20.66
2018-08-03T00:27:42.866Z,20.72
2018-08-03T00:28:42.932Z,20.88
2018-08-03T00:29:42.992Z,20.88
2018-08-03T00:30:43.053Z,20.94
2018-08-03T00:31:43.114Z,20.87
2018-08-03T00:32:43.176Z,20.75
2018-08-03T00:33:43.241Z,20.83
2018-08-03T00:34:43.300Z,20.96
2018-08-03T00:35:43.362Z,20.93
2018-08-03T00:36:43.425Z,20.91
2018-08-03T00:37:43.486Z,20.88
2018-08-03T00:38:43.550Z,20.85
2018-08-03T00:39:43.609Z,20.85
2018-08-03T00:40:43.671Z,20.85
2018-08-03T00:41:43.734Z,20.90
2018-08-03T00:42:43.796Z,20.88
2018-08-03T00:43:43.857Z,20.87
2018-08-03T00:44:43.920Z,20.90
2018-08-03T00:45:43.982Z,20.85
2018-08-03T00:46:44.043Z,20.82
2018-08-03T00:47:44.104Z,20.81
2018-08-03T00:48:44.167Z,20.79
2018-08-03T00:49:44.229Z,20.75
2018-08-03T00:50:44.290Z,20.66
2018-08-03T00:51:44.355Z,20.60
2018-08-03T00:52:44.414Z,20.56
2018-08-03T00:53:44.476Z,20.46
2018-08-03T00:54:44.538Z,20.53
2018-08-03T00:55:44.600Z,20.48
2018-08-03T00:56:44.661Z,20.35
2018-08-03T00:57:44.724Z,20.34
2018-08-03T00:58:44.787Z,20.30
2018-08-03T00:59:44.851Z,20.37
2018-08-03T01:00:44.909Z,20.23
2018-08-03T01:01:45.222Z,20.31
2018-08-03T01:02:45.035Z,20.30
2018-08-03T01:03:45.096Z,20.34
2018-08-03T01:04:45.157Z,20.30
2018-08-03T01:05:45.219Z,20.20
2018-08-03T01:06:45.282Z,20.19
2018-08-03T01:07:45.344Z,20.25
2018-08-03T01:08:45.406Z,20.26
2018-08-03T01:09:45.468Z,20.35
2018-08-03T01:10:45.528Z,20.22
2018-08-03T01:11:45.589Z,20.26
2018-08-03T01:12:45.653Z,20.19
2018-08-03T01:13:45.714Z,20.19
2018-08-03T01:14:45.778Z,20.20
2018-08-03T01:15:45.836Z,20.02
2018-08-03T01:16:46.150Z,20.02
2018-08-03T01:17:45.960Z,20.10
2018-08-03T01:18:46.023Z,19.95
2018-08-03T01:19:46.085Z,20.10
2018-08-03T01:20:46.146Z,20.10
2018-08-03T01:21:46.458Z,20.20
2018-08-03T01:22:46.273Z,20.10
2018-08-03T01:23:46.330Z,20.07
2018-08-03T01:24:46.392Z,20.05
2018-08-03T01:25:46.468Z,20.07
2018-08-03T01:26:46.517Z,20.08
2018-08-03T01:27:46.577Z,20.08
2018-08-03T01:28:46.638Z,20.12
2018-08-03T01:29:46.714Z,20.02
2018-08-03T01:30:46.763Z,20.00
2018-08-03T01:31:46.824Z,19.95
2018-08-03T01:32:46.886Z,19.95
2018-08-03T01:33:46.948Z,20.00
2018-08-03T01:34:47.011Z,19.92
2018-08-03T01:35:47.071Z,19.97
2018-08-03T01:36:47.132Z,19.98
2018-08-03T01:37:47.247Z,19.98
2018-08-03T01:38:47.256Z,20.04
2018-08-03T01:39:47.317Z,20.20
2018-08-03T01:40:47.379Z,20.15
2018-08-03T01:41:47.441Z,20.16
2018-08-03T01:42:47.753Z,20.19
2018-08-03T01:43:47.562Z,20.17
2018-08-03T01:44:47.626Z,20.20
2018-08-03T01:45:47.686Z,20.10
2018-08-03T01:46:47.751Z,20.10
2018-08-03T01:47:47.812Z,20.00
2018-08-03T01:48:47.873Z,19.90
2018-08-03T01:49:47.932Z,19.82
2018-08-03T01:50:47.995Z,19.90
2018-08-03T01:51:48.055Z,19.86
2018-08-03T01:52:48.117Z,19.89
2018-08-03T01:53:48.178Z,19.95
2018-08-03T01:54:48.244Z,19.95
2018-08-03T01:55:48.301Z,19.97
2018-08-03T01:56:48.363Z,19.92
2018-08-03T01:57:48.425Z,19.89
2018-08-03T01:58:48.487Z,20.01
2018-08-03T01:59:48.549Z,19.86
2018-08-03T02:00:48.609Z,19.90
2018-08-03T02:01:48.671Z,19.83
2018-08-03T02:02:48.734Z,19.85
2018-08-03T02:03:48.800Z,19.78
2018-08-03T02:04:48.855Z,19.80
2018-08-03T02:05:48.918Z,19.92
2018-08-03T02:06:48.979Z,19.82
2018-08-03T02:07:49.040Z,19.95
2018-08-03T02:08:49.101Z,19.98
2018-08-03T02:09:49.163Z,19.86
2018-08-03T02:10:49.225Z,19.70
2018-08-03T02:11:49.285Z,19.62
2018-08-03T02:12:49.348Z,19.60
2018-08-03T02:13:49.410Z,19.60
2018-08-03T02:14:49.470Z,19.61
2018-08-03T02:15:49.531Z,19.60
2018-08-03T02:16:49.593Z,19.57
2018-08-03T02:17:49.654Z,19.52
2018-08-03T02:18:49.721Z,19.68
2018-08-03T02:19:49.776Z,19.70
2018-08-03T02:20:49.839Z,19.70
2018-08-03T02:21:49.942Z,19.65
2018-08-03T02:22:50.121Z,19.60
2018-08-03T02:23:50.025Z,19.55
2018-08-03T02:24:50.110Z,19.57
2018-08-03T02:25:50.148Z,19.60
2018-08-03T02:26:50.208Z,19.52
2018-08-03T02:27:50.269Z,19.58
2018-08-03T02:28:50.330Z,19.61
2018-08-03T02:29:50.395Z,19.50
2018-08-03T02:30:50.455Z,19.58
2018-08-03T02:31:50.514Z,19.43
2018-08-03T02:32:50.577Z,19.32
2018-08-03T02:33:50.638Z,19.43
2018-08-03T02:34:50.699Z,19.28
2018-08-03T02:35:50.763Z,19.31
2018-08-03T02:36:50.821Z,19.24
2018-08-03T02:37:50.884Z,19.32
2018-08-03T02:38:50.944Z,19.16
2018-08-03T02:39:51.005Z,19.20
2018-08-03T02:40:51.066Z,19.21
2018-08-03T02:41:51.129Z,19.27
2018-08-03T02:42:51.190Z,19.27
2018-08-03T02:43:51.249Z,19.30
2018-08-03T02:44:51.315Z,19.31
2018-08-03T02:45:51.374Z,19.31
2018-08-03T02:46:51.435Z,19.20
2018-08-03T02:47:51.495Z,19.30
2018-08-03T02:48:51.556Z,19.27
2018-08-03T02:49:51.619Z,19.17
2018-08-03T02:50:51.680Z,19.20
2018-08-03T02:51:51.741Z,19.24
2018-08-03T02:52:51.802Z,19.13
2018-08-03T02:53:51.863Z,19.20
2018-08-03T02:54:51.924Z,19.27
2018-08-03T02:55:51.986Z,19.35
2018-08-03T02:56:52.048Z,19.38
2018-08-03T02:57:52.107Z,19.32
2018-08-03T02:58:52.169Z,19.35
2018-08-03T02:59:52.230Z,19.28
2018-08-03T03:00:52.292Z,19.35
2018-08-03T03:01:52.353Z,19.27
2018-08-03T03:02:52.414Z,19.24
2018-08-03T03:03:52.475Z,19.15
2018-08-03T03:04:52.536Z,19.05
2018-08-03T03:05:52.599Z,19.12
2018-08-03T03:06:52.660Z,18.97
2018-08-03T03:07:52.721Z,18.99
2018-08-03T03:08:52.782Z,19.06
2018-08-03T03:09:52.844Z,19.10
2018-08-03T03:10:52.905Z,19.21
2018-08-03T03:11:52.968Z,19.15
2018-08-03T03:12:53.027Z,19.15
2018-08-03T03:13:53.087Z,19.12
2018-08-03T03:14:53.148Z,19.13
2018-08-03T03:15:53.211Z,19.12
2018-08-03T03:16:53.270Z,19.10
2018-08-03T03:17:53.333Z,19.17
2018-08-03T03:18:53.393Z,19.15
2018-08-03T03:19:53.456Z,19.13
2018-08-03T03:20:53.524Z,19.12
2018-08-03T03:21:53.576Z,19.09
2018-08-03T03:22:53.900Z,19.15
2018-08-03T03:23:53.700Z,19.23
2018-08-03T03:24:53.777Z,19.43
2018-08-03T03:25:53.822Z,19.58
2018-08-03T03:26:53.881Z,19.50
2018-08-03T03:27:53.955Z,19.49
2018-08-03T03:28:54.061Z,19.35
2018-08-03T03:29:54.065Z,19.30
2018-08-03T03:30:54.127Z,19.32
2018-08-03T03:31:54.188Z,19.30
2018-08-03T03:32:54.248Z,19.28
2018-08-03T03:33:54.309Z,19.16
2018-08-03T03:34:54.371Z,19.27
2018-08-03T03:35:54.432Z,19.32
2018-08-03T03:36:54.493Z,19.43
2018-08-03T03:37:54.554Z,19.47
2018-08-03T03:38:54.615Z,19.60
2018-08-03T03:39:54.676Z,19.57
2018-08-03T03:40:54.737Z,19.38
2018-08-03T03:41:54.800Z,19.21
2018-08-03T03:42:54.860Z,19.30
2018-08-03T03:43:54.920Z,19.23
2018-08-03T03:44:54.981Z,19.16
2018-08-03T03:45:55.043Z,19.31
2018-08-03T03:46:55.105Z,19.35
2018-08-03T03:47:55.165Z,19.39
2018-08-03T03:48:55.232Z,19.40
2018-08-03T03:49:55.286Z,19.43
2018-08-03T03:50:55.370Z,19.55
2018-08-03T03:51:55.418Z,19.49
2018-08-03T03:52:55.522Z,19.52
2018-08-03T03:53:55.596Z,19.39
2018-08-03T03:54:55.592Z,19.38
2018-08-03T03:55:55.682Z,19.35
2018-08-03T03:56:55.751Z,19.35
2018-08-03T03:57:55.777Z,19.17
2018-08-03T03:58:55.840Z,19.13
2018-08-03T03:59:55.897Z,19.13
2018-08-03T04:00:55.958Z,18.99
2018-08-03T04:01:56.020Z,19.02
2018-08-03T04:02:56.105Z,19.25
2018-08-03T04:03:56.169Z,19.28
2018-08-03T04:04:56.203Z,19.32
2018-08-03T04:05:56.267Z,19.20
2018-08-03T04:06:56.326Z,19.21
2018-08-03T04:07:56.385Z,19.09
2018-08-03T04:08:56.447Z,18.96
2018-08-03T04:09:56.508Z,18.94
2018-08-03T04:10:56.592Z,18.93
2018-08-03T04:11:56.628Z,18.93
2018-08-03T04:12:56.694Z,18.82
2018-08-03T04:13:56.785Z,18.83
2018-08-03T04:14:56.840Z,18.82
2018-08-03T04:15:57.274Z,18.78
2018-08-03T04:16:56.968Z,18.86
2018-08-03T04:17:57.031Z,18.79
2018-08-03T04:18:57.058Z,18.91
2018-08-03T04:19:57.116Z,18.93
2018-08-03T04:20:57.183Z,18.96
2018-08-03T04:21:57.239Z,19.02
2018-08-03T04:22:57.300Z,19.05
2018-08-03T04:23:57.368Z,18.93
2018-08-03T04:24:57.421Z,18.93
2018-08-03T04:25:57.483Z,18.99
2018-08-03T04:26:57.544Z,19.13
2018-08-03T04:27:57.604Z,18.99
2018-08-03T04:28:57.666Z,18.86
2018-08-03T04:29:57.727Z,18.87
2018-08-03T04:30:57.789Z,18.96
2018-08-03T04:31:57.849Z,18.97
2018-08-03T04:32:57.909Z,18.94
2018-08-03T04:33:57.971Z,18.83
2018-08-03T04:34:58.033Z,18.79
2018-08-03T04:35:58.093Z,18.78
2018-08-03T04:36:58.154Z,18.83
2018-08-03T04:37:58.215Z,18.78
2018-08-03T04:38:58.315Z,18.79
2018-08-03T04:39:58.336Z,18.84
2018-08-03T04:40:58.397Z,18.86
2018-08-03T04:41:58.459Z,18.71
2018-08-03T04:42:58.520Z,18.78
2018-08-03T04:43:58.581Z,18.76
2018-08-03T04:44:58.642Z,18.83
2018-08-03T04:45:58.703Z,18.83
2018-08-03T04:46:58.764Z,18.96
2018-08-03T04:47:58.826Z,18.86
2018-08-03T04:48:58.893Z,18.99
2018-08-03T04:49:58.949Z,18.94
2018-08-03T04:50:59.011Z,18.99
2018-08-03T04:51:59.071Z,19.05
2018-08-03T04:52:59.160Z,19.09
2018-08-03T04:53:59.190Z,19.05
2018-08-03T04:54:59.253Z,19.01
2018-08-03T04:55:59.332Z,18.99
2018-08-03T04:56:59.373Z,18.97
2018-08-03T04:57:59.435Z,18.93
2018-08-03T04:58:59.502Z,18.94
2018-08-03T04:59:59.563Z,19.02
2018-08-03T05:00:59.618Z,19.01
2018-08-03T05:01:59.683Z,19.05
2018-08-03T05:02:59.740Z,19.06
2018-08-03T05:03:59.801Z,19.07
2018-08-03T05:05:00.490Z,19.12
2018-08-03T05:05:59.929Z,19.13
2018-08-03T05:06:59.984Z,19.16
2018-08-03T05:08:00.050Z,19.15
2018-08-03T05:09:00.107Z,19.15
2018-08-03T05:10:00.169Z,19.17
2018-08-03T05:11:00.229Z,19.28
2018-08-03T05:12:00.298Z,19.30
2018-08-03T05:13:00.351Z,19.30
2018-08-03T05:14:00.413Z,19.32
2018-08-03T05:15:00.475Z,19.39
2018-08-03T05:16:00.535Z,19.30
2018-08-03T05:17:00.595Z,19.35
2018-08-03T05:18:00.658Z,19.30
2018-08-03T05:19:00.719Z,19.34
2018-08-03T05:20:00.780Z,19.31
2018-08-03T05:21:00.842Z,19.43
2018-08-03T05:22:00.904Z,19.38
2018-08-03T05:23:00.965Z,19.43
2018-08-03T05:24:01.025Z,19.42
2018-08-03T05:25:01.087Z,19.45
2018-08-03T05:26:01.149Z,19.50
2018-08-03T05:27:01.212Z,19.52
2018-08-03T05:28:01.271Z,19.55
2018-08-03T05:29:01.331Z,19.60
2018-08-03T05:30:01.394Z,19.53
2018-08-03T05:31:01.455Z,19.62
2018-08-03T05:32:01.517Z,19.68
2018-08-03T05:33:01.578Z,19.75
2018-08-03T05:34:01.639Z,19.72
2018-08-03T05:35:01.699Z,19.78
2018-08-03T05:36:01.855Z,19.85
2018-08-03T05:37:01.822Z,19.85
2018-08-03T05:38:01.885Z,19.90
2018-08-03T05:39:01.946Z,19.98
2018-08-03T05:40:02.007Z,20.05
2018-08-03T05:41:14.982Z,20.10
2018-08-03T05:42:02.131Z,20.13
2018-08-03T05:43:02.193Z,20.07
2018-08-03T05:44:02.254Z,20.07
2018-08-03T05:45:02.318Z,20.15
2018-08-03T05:46:02.378Z,20.07
2018-08-03T05:47:02.441Z,20.15
2018-08-03T05:48:02.500Z,20.23
2018-08-03T05:49:02.584Z,20.26
2018-08-03T05:50:02.634Z,20.31
2018-08-03T05:51:02.685Z,20.33
2018-08-03T05:52:02.746Z,20.35
2018-08-03T05:53:02.808Z,20.31
2018-08-03T05:54:02.889Z,20.37
2018-08-03T05:55:02.934Z,20.35
2018-08-03T05:56:03.004Z,20.38
2018-08-03T05:57:03.056Z,20.46
2018-08-03T05:58:03.156Z,20.54
2018-08-03T05:59:03.180Z,20.57
2018-08-03T06:00:03.250Z,20.66
2018-08-03T06:01:03.305Z,20.72
2018-08-03T06:02:03.364Z,20.75
2018-08-03T06:03:03.428Z,20.79
2018-08-03T06:04:03.557Z,20.78
2018-08-03T06:05:03.557Z,20.94
2018-08-03T06:06:03.613Z,20.91
2018-08-03T06:07:03.675Z,20.88
2018-08-03T06:08:03.738Z,20.90
2018-08-03T06:09:03.797Z,20.93
2018-08-03T06:10:03.860Z,20.90
2018-08-03T06:11:03.924Z,21.01
2018-08-03T06:12:03.983Z,20.98
2018-08-03T06:13:04.045Z,21.06
2018-08-03T06:14:04.111Z,21.11
2018-08-03T06:15:04.170Z,21.09
2018-08-03T06:16:04.232Z,21.09
2018-08-03T06:17:04.297Z,21.15
2018-08-03T06:18:04.357Z,21.19
2018-08-03T06:19:04.419Z,21.33
2018-08-03T06:20:04.480Z,21.42
2018-08-03T06:21:04.549Z,21.48
2018-08-03T06:22:04.606Z,21.58
2018-08-03T06:23:04.669Z,21.64
2018-08-03T06:24:04.738Z,21.67
2018-08-03T06:25:04.792Z,21.79
2018-08-03T06:26:04.854Z,21.79
2018-08-03T06:27:04.921Z,21.94
2018-08-03T06:28:05.530Z,21.98
2018-08-03T06:29:05.042Z,22.11
2018-08-03T06:30:05.106Z,22.14
2018-08-03T06:31:05.168Z,22.15
2018-08-03T06:32:05.231Z,22.23
2018-08-03T06:33:05.295Z,22.26
2018-08-03T06:34:05.356Z,22.31
2018-08-03T06:35:05.419Z,22.31
2018-08-03T06:36:05.481Z,22.36
2018-08-03T06:37:05.544Z,22.46
2018-08-03T06:38:05.625Z,22.49
2018-08-03T06:39:05.670Z,22.57
2018-08-03T06:40:05.737Z,22.69
2018-08-03T06:41:05.797Z,22.61
2018-08-03T06:42:05.858Z,22.75
2018-08-03T06:43:05.923Z,22.84
2018-08-03T06:44:05.984Z,22.91
2018-08-03T06:45:06.051Z,22.88
2018-08-03T06:46:06.150Z,22.96
2018-08-03T06:47:06.212Z,22.96
2018-08-03T06:48:06.280Z,23.06
2018-08-03T06:49:06.347Z,23.12
2018-08-03T06:50:06.460Z,23.15
2018-08-03T06:51:06.466Z,23.25
2018-08-03T06:52:06.522Z,23.22
2018-08-03T06:53:06.588Z,23.29
2018-08-03T06:54:06.653Z,23.38
2018-08-03T06:55:06.715Z,23.37
2018-08-03T06:56:06.744Z,23.37
2018-08-03T06:57:06.808Z,23.52
2018-08-03T06:58:06.871Z,23.54
2018-08-03T06:59:06.999Z,23.56
2018-08-03T07:00:06.997Z,23.64
2018-08-03T07:01:07.657Z,23.74
2018-08-03T07:02:07.126Z,23.74
2018-08-03T07:03:07.200Z,23.81
2018-08-03T07:04:07.915Z,23.87
2018-08-03T07:05:07.315Z,23.94
2018-08-03T07:06:07.380Z,23.97
2018-08-03T07:07:07.444Z,23.99
2018-08-03T07:08:07.508Z,24.15
2018-08-03T07:09:07.571Z,24.18
2018-08-03T07:10:07.636Z,24.24
2018-08-03T07:11:07.701Z,24.27
2018-08-03T07:12:07.762Z,24.29
2018-08-03T07:13:07.826Z,24.31
2018-08-03T07:14:07.890Z,24.33
2018-08-03T07:15:07.955Z,24.41
2018-08-03T07:16:08.018Z,24.42
2018-08-03T07:17:08.083Z,24.42
2018-08-03T07:18:08.146Z,24.41
2018-08-03T07:19:08.211Z,24.51
2018-08-03T07:20:08.360Z,24.53
2018-08-03T07:21:08.339Z,24.63
2018-08-03T07:22:08.403Z,24.59
2018-08-03T07:23:08.468Z,24.82
2018-08-03T07:24:08.531Z,24.83
2018-08-03T07:25:08.596Z,24.84
2018-08-03T07:26:08.659Z,24.90
2018-08-03T07:27:08.725Z,24.94
2018-08-03T07:28:08.797Z,24.93
2018-08-03T07:29:08.852Z,25.07
2018-08-03T07:30:08.928Z,25.14
2018-08-03T07:31:08.982Z,25.16
2018-08-03T07:32:09.049Z,25.17
2018-08-03T07:33:09.110Z,25.26
2018-08-03T07:34:09.174Z,25.39
2018-08-03T07:35:09.239Z,25.39
2018-08-03T07:36:09.308Z,25.51
2018-08-03T07:37:09.371Z,25.48
2018-08-03T07:38:09.433Z,25.56
2018-08-03T07:39:09.497Z,25.64
2018-08-03T07:40:09.580Z,25.69
2018-08-03T07:41:09.626Z,25.56
2018-08-03T07:42:09.691Z,25.60
2018-08-03T07:43:09.782Z,25.61
2018-08-03T07:44:09.821Z,25.72
2018-08-03T07:45:09.884Z,25.72
2018-08-03T07:46:09.950Z,25.74
2018-08-03T07:47:10.015Z,25.82
2018-08-03T07:48:10.078Z,25.89
2018-08-03T07:49:10.144Z,25.91
2018-08-03T07:50:10.223Z,26.08
2018-08-03T07:51:10.284Z,26.13
2018-08-03T07:52:10.340Z,26.06
2018-08-03T07:53:10.422Z,26.13
2018-08-03T07:54:10.469Z,26.19
2018-08-03T07:55:10.534Z,26.28
2018-08-03T07:56:10.599Z,26.35
2018-08-03T07:57:10.664Z,26.31
2018-08-03T07:58:10.745Z,26.46
2018-08-03T07:59:10.795Z,26.47
2018-08-03T08:00:11.662Z,26.60
2018-08-03T08:01:10.927Z,26.84
2018-08-03T08:02:11.019Z,26.81
2018-08-03T08:03:11.081Z,26.87
2018-08-03T08:04:11.122Z,27.02
2018-08-03T08:05:11.186Z,27.06
2018-08-03T08:06:11.303Z,27.09
2018-08-03T08:07:11.328Z,27.18
2018-08-03T08:08:11.383Z,27.27
2018-08-03T08:09:11.450Z,27.24
2018-08-03T08:10:11.515Z,27.35
2018-08-03T08:11:11.581Z,27.34
2018-08-03T08:12:12.181Z,27.48
2018-08-03T08:13:11.711Z,27.55
2018-08-03T08:14:11.778Z,27.58
2018-08-03T08:15:12.184Z,27.58
2018-08-03T08:16:11.908Z,27.66
2018-08-03T08:17:11.974Z,27.76
2018-08-03T08:18:12.040Z,27.81
2018-08-03T08:19:12.107Z,27.86
2018-08-03T08:20:12.172Z,27.87
2018-08-03T08:21:12.239Z,27.91
2018-08-03T08:22:12.305Z,27.95
2018-08-03T08:23:12.370Z,28.02
2018-08-03T08:24:12.439Z,27.96
2018-08-03T08:25:12.503Z,28.06
2018-08-03T08:26:12.634Z,28.18
2018-08-03T08:27:12.636Z,28.23
2018-08-03T08:28:12.702Z,28.24
2018-08-03T08:29:12.766Z,28.33
2018-08-03T08:30:12.834Z,28.38
2018-08-03T08:31:13.151Z,28.36
2018-08-03T08:32:12.965Z,28.33
2018-08-03T08:33:13.032Z,28.40
2018-08-03T08:34:13.098Z,28.48
2018-08-03T08:35:13.167Z,28.48
2018-08-03T08:36:13.231Z,28.65
2018-08-03T08:37:13.298Z,28.58
2018-08-03T08:38:13.365Z,28.51
2018-08-03T08:39:13.431Z,28.60
2018-08-03T08:40:13.497Z,28.58
2018-08-03T08:41:13.565Z,28.79
2018-08-03T08:42:13.631Z,28.82
2018-08-03T08:43:13.700Z,28.97
2018-08-03T08:44:14.074Z,28.92
2018-08-03T08:45:13.834Z,29.05
2018-08-03T08:46:13.897Z,29.17
2018-08-03T08:47:13.965Z,29.26
2018-08-03T08:48:14.031Z,29.32
2018-08-03T08:49:14.125Z,29.44
2018-08-03T08:50:14.167Z,29.42
2018-08-03T08:51:14.383Z,29.57
2018-08-03T08:52:14.298Z,29.69
2018-08-03T08:53:14.405Z,29.70
2018-08-03T08:54:14.431Z,29.82
2018-08-03T08:55:14.499Z,29.85
2018-08-03T08:56:14.565Z,29.94
2018-08-03T08:57:14.633Z,29.92
2018-08-03T08:58:14.700Z,29.95
2018-08-03T08:59:14.767Z,30.01
2018-08-03T09:00:14.835Z,30.11
2018-08-03T09:01:14.958Z,30.07
2018-08-03T09:02:14.970Z,30.04
2018-08-03T09:03:15.039Z,30.30
2018-08-03T09:04:15.104Z,30.21
2018-08-03T09:05:15.171Z,30.15
2018-08-03T09:06:16.016Z,30.25
2018-08-03T09:07:15.308Z,30.21
2018-08-03T09:08:15.374Z,30.22
2018-08-03T09:09:15.441Z,30.36
2018-08-03T09:10:15.512Z,30.36
2018-08-03T09:11:15.827Z,30.38
2018-08-03T09:12:15.647Z,30.45
2018-08-03T09:13:15.812Z,30.53
2018-08-03T09:14:15.779Z,30.59
2018-08-03T09:15:15.849Z,30.61
2018-08-03T09:16:15.914Z,30.56
2018-08-03T09:17:15.982Z,30.51
2018-08-03T09:18:16.080Z,30.51
2018-08-03T09:19:16.120Z,30.49
2018-08-03T09:20:16.185Z,30.66
2018-08-03T09:21:16.257Z,30.73
2018-08-03T09:22:16.335Z,30.83
2018-08-03T09:23:16.408Z,30.93
2018-08-03T09:24:16.461Z,30.88
2018-08-03T09:25:29.262Z,30.98
2018-08-03T09:26:16.595Z,31.05
2018-08-03T09:27:16.663Z,31.16
2018-08-03T09:28:16.772Z,31.19
2018-08-03T09:29:16.796Z,31.15
2018-08-03T09:30:16.866Z,31.23
2018-08-03T09:31:16.934Z,31.18
2018-08-03T09:32:17.002Z,31.35
2018-08-03T09:33:17.069Z,31.46
2018-08-03T09:34:17.138Z,31.53
2018-08-03T09:35:17.206Z,31.71
2018-08-03T09:36:17.274Z,31.74
2018-08-03T09:37:17.344Z,31.88
2018-08-03T09:38:17.411Z,31.82
2018-08-03T09:39:17.480Z,31.76
2018-08-03T09:40:17.547Z,31.69
2018-08-03T09:41:17.616Z,31.65
2018-08-03T09:42:17.685Z,31.68
2018-08-03T09:43:17.754Z,31.72
2018-08-03T09:44:17.821Z,31.85
2018-08-03T09:45:17.900Z,32.03
2018-08-03T09:46:17.962Z,31.98
2018-08-03T09:47:18.520Z,32.10
2018-08-03T09:48:18.098Z,32.28
2018-08-03T09:49:18.200Z,32.35
2018-08-03T09:50:18.235Z,32.53
2018-08-03T09:51:18.302Z,32.65
2018-08-03T09:52:18.369Z,32.71
2018-08-03T09:53:18.438Z,32.81
2018-08-03T09:54:18.508Z,32.81
2018-08-03T09:55:18.610Z,32.73
2018-08-03T09:56:18.650Z,32.80
2018-08-03T09:57:18.718Z,32.81
2018-08-03T09:58:18.783Z,32.80
2018-08-03T09:59:18.857Z,32.90
2018-08-03T10:00:18.919Z,32.95
2018-08-03T10:01:18.989Z,33.09
2018-08-03T10:02:19.056Z,33.20
2018-08-03T10:03:19.127Z,33.14
2018-08-03T10:04:19.195Z,33.14
2018-08-03T10:05:19.265Z,33.22
2018-08-03T10:06:19.334Z,33.29
2018-08-03T10:07:19.443Z,33.41
2018-08-03T10:08:19.469Z,33.52
2018-08-03T10:09:19.541Z,33.53
2018-08-03T10:10:19.612Z,33.60
2018-08-03T10:11:19.679Z,33.63
2018-08-03T10:12:19.747Z,33.53
2018-08-03T10:13:19.818Z,33.49
2018-08-03T10:14:19.887Z,33.47
2018-08-03T10:15:19.957Z,33.56
2018-08-03T10:16:20.024Z,33.40
2018-08-03T10:17:20.094Z,33.40
2018-08-03T10:18:20.163Z,33.34
2018-08-03T10:19:20.232Z,33.45
2018-08-03T10:20:20.301Z,33.52
2018-08-03T10:21:20.372Z,33.65
2018-08-03T10:22:21.102Z,33.89
2018-08-03T10:23:20.513Z,34.05
2018-08-03T10:24:20.581Z,33.93
2018-08-03T10:25:20.652Z,34.01
2018-08-03T10:26:20.723Z,34.15
2018-08-03T10:27:20.794Z,34.37
2018-08-03T10:28:20.864Z,34.43
2018-08-03T10:29:20.936Z,34.61
2018-08-03T10:30:21.009Z,34.61
2018-08-03T10:31:21.083Z,34.53
2018-08-03T10:32:21.152Z,34.58
2018-08-03T10:33:21.225Z,34.53
2018-08-03T10:34:21.296Z,34.61
2018-08-03T10:35:21.374Z,35.00
2018-08-03T10:36:21.443Z,35.13
2018-08-03T10:37:21.516Z,35.32
2018-08-03T10:38:21.590Z,35.77
2018-08-03T10:39:21.663Z,35.69
2018-08-03T10:40:21.737Z,35.77
2018-08-03T10:41:21.813Z,35.65
2018-08-03T10:42:21.888Z,35.47
2018-08-03T10:43:21.966Z,35.55
2018-08-03T10:44:22.039Z,36.34
2018-08-03T10:45:22.114Z,36.90
2018-08-03T10:46:22.186Z,37.18
2018-08-03T10:47:22.262Z,36.25
2018-08-03T10:48:22.337Z,36.06
2018-08-03T10:49:22.412Z,35.93
2018-08-03T10:50:22.494Z,36.46
2018-08-03T10:51:22.626Z,36.97
2018-08-03T10:52:22.640Z,36.94
2018-08-03T10:53:22.718Z,36.12
2018-08-03T10:54:22.797Z,36.06
2018-08-03T10:55:22.870Z,36.03
2018-08-03T10:56:22.947Z,36.46
2018-08-03T10:57:23.023Z,36.67
2018-08-03T10:58:23.146Z,37.06
2018-08-03T10:59:23.176Z,36.86
2018-08-03T11:00:23.256Z,36.69
2018-08-03T11:01:23.371Z,36.94
2018-08-03T11:02:23.407Z,37.18
2018-08-03T11:03:23.483Z,37.49
2018-08-03T11:04:23.559Z,37.18
2018-08-03T11:05:23.637Z,37.21
2018-08-03T11:06:23.715Z,37.56
2018-08-03T11:07:23.791Z,37.90
2018-08-03T11:08:23.869Z,38.47
2018-08-03T11:09:23.946Z,38.71
2018-08-03T11:10:24.023Z,38.97
2018-08-03T11:11:24.099Z,38.56
2018-08-03T11:12:24.176Z,37.16
2018-08-03T11:13:24.253Z,36.49
2018-08-03T11:14:24.348Z,35.93
2018-08-03T11:15:24.412Z,36.13
2018-08-03T11:16:24.487Z,35.77
2018-08-03T11:17:24.565Z,35.77
2018-08-03T11:18:24.643Z,35.73
2018-08-03T11:19:24.720Z,35.46
2018-08-03T11:20:24.801Z,35.20
2018-08-03T11:21:24.875Z,34.98
2018-08-03T11:22:24.953Z,35.42
2018-08-03T11:23:25.031Z,35.95
2018-08-03T11:24:25.108Z,36.19
2018-08-03T11:25:25.184Z,37.08
2018-08-03T11:26:25.266Z,37.60
2018-08-03T11:27:25.339Z,37.02
2018-08-03T11:28:25.415Z,37.21
2018-08-03T11:29:25.518Z,37.73
2018-08-03T11:30:25.572Z,37.93
2018-08-03T11:31:25.649Z,37.81
2018-08-03T11:32:25.725Z,38.26
2018-08-03T11:33:25.802Z,38.56
2018-08-03T11:34:25.879Z,38.77
2018-08-03T11:35:25.957Z,39.28
2018-08-03T11:36:26.034Z,39.39
2018-08-03T11:37:26.112Z,39.63
2018-08-03T11:38:26.189Z,39.91
2018-08-03T11:39:26.268Z,40.28
2018-08-03T11:40:26.345Z,40.54
2018-08-03T11:41:27.429Z,40.16
2018-08-03T11:42:26.500Z,40.02
2018-08-03T11:43:26.579Z,39.01
2018-08-03T11:44:26.654Z,38.44
2018-08-03T11:45:26.734Z,38.34
2018-08-03T11:46:26.811Z,38.72
2018-08-03T11:47:26.890Z,39.25
2018-08-03T11:48:27.020Z,39.34
2018-08-03T11:49:27.045Z,39.92
2018-08-03T11:50:27.126Z,40.10
2018-08-03T11:51:27.202Z,39.66
2018-08-03T11:52:27.279Z,38.72
2018-08-03T11:53:27.358Z,38.10
2018-08-03T11:54:27.436Z,37.04
2018-08-03T11:55:27.514Z,36.87
2018-08-03T11:56:27.592Z,36.96
2018-08-03T11:57:27.669Z,36.71
2018-08-03T11:58:27.748Z,37.42
2018-08-03T11:59:27.825Z,38.15
2018-08-03T12:00:27.903Z,37.96
2018-08-03T12:01:27.981Z,37.45
2018-08-03T12:02:28.059Z,38.30
2018-08-03T12:03:28.140Z,39.05
2018-08-03T12:04:28.213Z,39.19
2018-08-03T12:05:28.292Z,39.29
2018-08-03T12:06:28.382Z,39.85
2018-08-03T12:07:28.447Z,39.17
2018-08-03T12:08:28.525Z,39.05
2018-08-03T12:09:28.602Z,39.25
2018-08-03T12:10:29.055Z,38.93
2018-08-03T12:11:28.759Z,38.34
2018-08-03T12:12:28.855Z,37.70
2018-08-03T12:13:28.913Z,37.60
2018-08-03T12:14:28.992Z,37.78
2018-08-03T12:15:29.071Z,37.81
2018-08-03T12:16:29.147Z,37.87
2018-08-03T12:17:29.226Z,37.54
2018-08-03T12:18:29.304Z,37.13
2018-08-03T12:19:29.382Z,37.21
2018-08-03T12:20:29.459Z,37.65
2018-08-03T12:21:29.537Z,38.62
2018-08-03T12:22:29.615Z,39.25
2018-08-03T12:23:29.698Z,39.39
2018-08-03T12:24:29.771Z,39.92
2018-08-03T12:25:29.848Z,40.21
2018-08-03T12:26:29.927Z,39.16
2018-08-03T12:27:30.006Z,39.07
2018-08-03T12:28:30.083Z,39.48
2018-08-03T12:29:30.160Z,39.99
2018-08-03T12:30:30.239Z,39.36
2018-08-03T12:31:30.319Z,39.59
2018-08-03T12:32:30.394Z,39.90
2018-08-03T12:33:30.472Z,40.21
2018-08-03T12:34:30.551Z,41.02
2018-08-03T12:35:30.629Z,40.79
2018-08-03T12:36:30.706Z,40.95
2018-08-03T12:37:30.785Z,40.04
2018-08-03T12:38:30.863Z,39.80
2018-08-03T12:39:31.708Z,39.28
2018-08-03T12:40:31.020Z,39.56
2018-08-03T12:41:31.099Z,40.15
2018-08-03T12:42:31.178Z,40.03
2018-08-03T12:43:31.256Z,40.31
2018-08-03T12:44:31.334Z,40.64
2018-08-03T12:45:34.145Z,41.47
2018-08-03T12:46:31.492Z,41.46
2018-08-03T12:47:31.571Z,41.25
2018-08-03T12:48:31.650Z,41.12
2018-08-03T12:49:31.729Z,40.78
2018-08-03T12:50:31.853Z,39.72
2018-08-03T12:51:31.945Z,38.93
2018-08-03T12:52:32.705Z,38.41
2018-08-03T12:53:32.647Z,38.00